createdAt,value
2022-09-23T00:00:00.920Z,20.40
2022-09-23T00:03:03.571Z,20.43
2022-09-23T00:06:08.474Z,20.40
2022-09-23T00:09:10.855Z,20.36
2022-09-23T00:12:13.335Z,20.39
2022-09-23T00:15:16.676Z,20.39
2022-09-23T00:18:21.019Z,20.34
2022-09-23T00:21:24.617Z,20.36
2022-09-23T00:24:27.805Z,20.33
2022-09-23T00:27:31.053Z,20.29
2022-09-23T00:30:34.987Z,20.32
2022-09-23T00:33:37.205Z,20.27
2022-09-23T00:36:40.959Z,20.25
2022-09-23T00:39:42.879Z,20.27
2022-09-23T00:42:49.768Z,20.26
2022-09-23T00:45:52.451Z,20.23
2022-09-23T00:49:26.054Z,20.22
2022-09-23T00:52:31.723Z,20.20
2022-09-23T00:55:40.319Z,20.19
2022-09-23T00:58:44.778Z,20.17
2022-09-23T01:01:50.025Z,20.17
2022-09-23T01:04:52.029Z,20.16
2022-09-23T01:07:57.828Z,20.13
2022-09-23T01:11:44.934Z,20.12
2022-09-23T01:15:09.312Z,20.09
2022-09-23T01:18:24.382Z,20.08
2022-09-23T01:21:52.385Z,20.06
2022-09-23T01:25:15.902Z,20.06
2022-09-23T01:28:39.797Z,20.02
2022-09-23T01:32:18.518Z,20.02
2022-09-23T01:35:35.532Z,20.00
2022-09-23T01:38:59.259Z,19.97
2022-09-23T01:42:07.354Z,19.99
2022-09-23T01:45:20.379Z,20.00
2022-09-23T01:48:40.424Z,19.99
2022-09-23T01:51:50.062Z,19.93
2022-09-23T01:55:09.177Z,19.96
2022-09-23T01:58:42.764Z,19.93
2022-09-23T02:01:56.131Z,19.95
2022-09-23T02:05:27.438Z,19.95
2022-09-23T02:08:35.702Z,19.92
2022-09-23T02:11:42.186Z,19.93
2022-09-23T02:14:52.435Z,19.89
2022-09-23T02:18:09.437Z,19.90
2022-09-23T02:21:15.137Z,19.87
2022-09-23T02:24:21.990Z,19.89
2022-09-23T02:27:51.196Z,19.87
2022-09-23T02:31:08.212Z,19.86
2022-09-23T02:34:21.465Z,19.85
2022-09-23T02:37:31.429Z,19.83
2022-09-23T02:40:41.040Z,19.83
2022-09-23T02:44:00.065Z,19.83
2022-09-23T02:47:04.140Z,19.82
2022-09-23T02:50:06.750Z,19.81
2022-09-23T02:53:09.324Z,19.81
2022-09-23T02:56:20.862Z,19.81
2022-09-23T02:59:24.413Z,19.81
2022-09-23T03:03:02.406Z,19.79
2022-09-23T03:06:28.786Z,19.79
2022-09-23T03:09:41.544Z,19.79
2022-09-23T03:12:48.256Z,19.78
2022-09-23T03:16:11.266Z,19.73
2022-09-23T03:19:42.745Z,19.75
2022-09-23T03:22:51.155Z,19.75
2022-09-23T03:25:57.169Z,19.72
2022-09-23T03:29:04.137Z,19.75
2022-09-23T03:32:08.583Z,19.71
2022-09-23T03:35:12.204Z,19.69
2022-09-23T03:38:17.556Z,19.72
2022-09-23T03:41:29.250Z,19.69
2022-09-23T03:44:37.944Z,19.71
2022-09-23T03:47:40.057Z,19.72
2022-09-23T03:50:42.829Z,19.69
2022-09-23T03:53:45.035Z,19.68
2022-09-23T03:56:48.196Z,19.68
2022-09-23T03:59:51.552Z,19.66
2022-09-23T04:02:54.027Z,19.66
2022-09-23T04:05:56.133Z,19.62
2022-09-23T04:09:01.988Z,19.65
2022-09-23T04:12:05.289Z,19.65
2022-09-23T04:15:08.088Z,19.63
2022-09-23T04:18:10.058Z,19.63
2022-09-23T04:21:12.536Z,19.62
2022-09-23T04:24:15.891Z,19.61
2022-09-23T04:27:18.349Z,19.61
2022-09-23T04:30:20.706Z,19.59
2022-09-23T04:33:23.105Z,19.62
2022-09-23T04:36:25.648Z,19.61
2022-09-23T04:39:27.939Z,19.61
2022-09-23T04:42:31.334Z,19.59
2022-09-23T04:45:33.791Z,19.61
2022-09-23T04:48:37.579Z,19.61
2022-09-23T04:51:44.054Z,19.59
2022-09-23T04:54:46.409Z,19.59
2022-09-23T04:57:48.889Z,19.58
2022-09-23T05:00:51.193Z,19.58
2022-09-23T05:03:58.088Z,19.61
2022-09-23T05:07:03.466Z,19.59
2022-09-23T05:10:07.740Z,19.57
2022-09-23T05:13:09.896Z,19.58
2022-09-23T05:16:12.730Z,19.59
2022-09-23T05:19:15.881Z,19.59
2022-09-23T05:22:19.355Z,19.58
2022-09-23T05:25:24.198Z,19.59
2022-09-23T05:28:30.396Z,19.61
2022-09-23T05:31:32.868Z,19.59
2022-09-23T05:34:35.500Z,19.68
2022-09-23T05:37:38.806Z,19.72
2022-09-23T05:40:41.394Z,19.68
2022-09-23T05:43:43.640Z,19.68
2022-09-23T05:46:46.049Z,19.63
2022-09-23T05:49:59.655Z,19.63
2022-09-23T05:53:02.747Z,19.62
2022-09-23T05:56:07.094Z,19.63
2022-09-23T05:59:09.593Z,19.61
2022-09-23T06:02:11.851Z,19.62
2022-09-23T06:05:15.370Z,19.61
2022-09-23T06:08:17.304Z,19.59
2022-09-23T06:11:21.870Z,19.58
2022-09-23T06:14:24.022Z,19.59
2022-09-23T06:17:26.358Z,19.55
2022-09-23T06:20:29.160Z,19.55
2022-09-23T06:23:32.082Z,19.55
2022-09-23T06:26:38.034Z,19.52
2022-09-23T06:29:40.643Z,19.52
2022-09-23T06:32:48.372Z,19.55
2022-09-23T06:35:58.912Z,19.54
2022-09-23T06:39:02.449Z,19.57
2022-09-23T06:42:08.063Z,19.52
2022-09-23T06:45:13.507Z,19.55
2022-09-23T06:48:15.891Z,19.55
2022-09-23T06:51:21.917Z,19.55
2022-09-23T06:54:24.474Z,19.57
2022-09-23T06:57:31.626Z,19.57
2022-09-23T07:00:36.115Z,19.58
2022-09-23T07:03:39.546Z,19.57
2022-09-23T07:06:42.751Z,19.57
2022-09-23T07:09:45.890Z,19.59
2022-09-23T07:12:48.236Z,19.61
2022-09-23T07:15:52.281Z,19.71
2022-09-23T07:18:55.228Z,19.76
2022-09-23T07:21:57.201Z,19.79
2022-09-23T07:24:59.486Z,19.85
2022-09-23T07:28:01.794Z,19.89
2022-09-23T07:31:15.048Z,19.97
2022-09-23T07:34:17.927Z,20.02
2022-09-23T07:37:20.775Z,20.05
2022-09-23T07:40:24.089Z,20.09
2022-09-23T07:43:29.197Z,20.15
2022-09-23T07:46:33.303Z,20.22
2022-09-23T07:49:36.079Z,20.26
2022-09-23T07:52:38.907Z,20.29
2022-09-23T07:55:41.552Z,20.32
2022-09-23T07:58:45.202Z,20.39
2022-09-23T08:01:51.082Z,20.44
2022-09-23T08:04:55.361Z,20.48
2022-09-23T08:07:58.451Z,20.50
2022-09-23T08:11:07.536Z,20.53
2022-09-23T08:14:13.951Z,20.57
2022-09-23T08:17:16.077Z,20.64
2022-09-23T08:20:38.583Z,20.67
2022-09-23T08:23:41.284Z,20.73
2022-09-23T08:26:45.271Z,20.77
2022-09-23T08:29:48.423Z,20.78
2022-09-23T08:32:52.357Z,20.81
2022-09-23T08:36:00.147Z,20.81
2022-09-23T08:39:03.747Z,20.87
2022-09-23T08:42:20.906Z,20.88
2022-09-23T08:45:27.944Z,20.95
2022-09-23T08:48:45.388Z,21.04
2022-09-23T08:51:48.738Z,21.04
2022-09-23T08:54:55.260Z,21.04
2022-09-23T08:58:26.984Z,21.05
2022-09-23T09:01:51.028Z,21.05
2022-09-23T09:05:00.401Z,21.09
2022-09-23T09:08:04.276Z,21.11
2022-09-23T09:11:08.401Z,21.14
2022-09-23T09:14:18.320Z,21.18
2022-09-23T09:17:48.972Z,21.17
2022-09-23T09:21:12.322Z,21.19
2022-09-23T09:24:21.941Z,21.18
2022-09-23T09:27:24.686Z,21.19
2022-09-23T09:30:32.555Z,21.22
2022-09-23T09:33:44.493Z,21.25
2022-09-23T09:37:11.633Z,21.31
2022-09-23T09:40:17.612Z,21.35
2022-09-23T09:43:24.940Z,21.34
2022-09-23T09:46:51.249Z,21.37
2022-09-23T09:50:05.628Z,21.38
2022-09-23T09:53:20.865Z,21.42
2022-09-23T09:56:33.489Z,21.42
2022-09-23T09:59:35.764Z,21.43
2022-09-23T10:02:40.072Z,21.49
2022-09-23T10:05:44.338Z,21.48
2022-09-23T10:09:19.470Z,21.50
2022-09-23T10:12:26.870Z,21.53
2022-09-23T10:15:34.805Z,21.53
2022-09-23T10:18:38.090Z,21.53
2022-09-23T10:21:43.891Z,21.55
2022-09-23T10:24:52.755Z,21.53
2022-09-23T10:27:55.240Z,21.52
2022-09-23T10:31:06.585Z,21.43
2022-09-23T10:34:26.606Z,21.38
2022-09-23T10:37:48.517Z,21.31
2022-09-23T10:44:16.682Z,21.27
2022-09-23T10:47:43.052Z,21.24
2022-09-23T10:50:50.229Z,21.22
2022-09-23T10:53:57.858Z,21.19
2022-09-23T10:57:43.648Z,21.17
2022-09-23T11:00:59.512Z,21.15
2022-09-23T11:04:12.280Z,21.12
2022-09-23T11:07:21.740Z,21.12
2022-09-23T11:10:46.545Z,21.12
2022-09-23T11:14:30.127Z,21.08
2022-09-23T11:18:06.497Z,21.09
2022-09-23T11:21:20.416Z,21.08
2022-09-23T11:24:25.749Z,21.08
2022-09-23T11:27:41.850Z,21.07
2022-09-23T11:31:15.221Z,21.07
2022-09-23T11:34:34.803Z,21.07
2022-09-23T11:37:43.580Z,21.05
2022-09-23T11:40:54.901Z,21.04
2022-09-23T11:44:28.141Z,21.02
2022-09-23T11:47:39.908Z,21.02
2022-09-23T11:50:54.212Z,21.02
2022-09-23T11:54:05.159Z,21.01
2022-09-23T11:57:15.265Z,21.01
2022-09-23T12:00:21.816Z,21.02
2022-09-23T12:03:57.677Z,21.01
2022-09-23T12:07:15.616Z,21.02
2022-09-23T12:10:20.988Z,20.99
2022-09-23T12:13:39.779Z,20.99
2022-09-23T12:17:07.867Z,21.02
2022-09-23T12:20:28.654Z,20.98
2022-09-23T12:23:37.707Z,21.01
2022-09-23T12:26:41.938Z,20.99
2022-09-23T12:29:44.725Z,21.04
2022-09-23T12:32:50.110Z,21.02
2022-09-23T12:36:07.323Z,21.04
2022-09-23T12:39:33.686Z,21.05
2022-09-23T12:42:43.931Z,21.07
2022-09-23T12:45:48.720Z,21.07
2022-09-23T12:49:02.000Z,21.07
2022-09-23T12:52:14.152Z,21.11
2022-09-23T12:55:25.315Z,21.12
2022-09-23T12:58:42.942Z,21.15
2022-09-23T13:01:46.140Z,21.17
2022-09-23T13:05:26.883Z,21.19
2022-09-23T13:08:29.250Z,21.18
2022-09-23T13:11:33.121Z,21.19
2022-09-23T13:14:38.130Z,21.18
2022-09-23T13:17:42.111Z,21.19
2022-09-23T13:20:47.504Z,21.19
2022-09-23T13:24:25.380Z,21.19
2022-09-23T13:27:37.263Z,21.19
2022-09-23T13:30:49.772Z,21.22
2022-09-23T13:34:00.290Z,21.21
2022-09-23T13:37:22.458Z,21.18
2022-09-23T13:40:30.023Z,21.18
2022-09-23T13:43:41.421Z,21.17
2022-09-23T13:46:51.229Z,21.15
2022-09-23T13:49:54.361Z,21.12
2022-09-23T13:53:31.167Z,21.12
2022-09-23T13:56:36.881Z,21.09
2022-09-23T13:59:42.564Z,21.08
2022-09-23T14:02:47.217Z,21.07
2022-09-23T14:05:52.778Z,21.07
2022-09-23T14:08:58.433Z,21.09
2022-09-23T14:12:02.209Z,21.11
2022-09-23T14:15:05.351Z,21.12
2022-09-23T14:18:08.623Z,21.15
2022-09-23T14:21:29.806Z,21.19
2022-09-23T14:24:35.144Z,21.21
2022-09-23T14:27:41.293Z,21.22
2022-09-23T14:30:46.317Z,21.25
2022-09-23T14:33:49.200Z,21.28
2022-09-23T14:37:10.149Z,21.29
2022-09-23T14:40:52.585Z,21.31
2022-09-23T14:44:00.635Z,21.34
2022-09-23T14:47:12.184Z,21.37
2022-09-23T14:50:44.082Z,21.37
2022-09-23T14:53:50.201Z,21.37
2022-09-23T14:56:56.416Z,21.38
2022-09-23T15:00:16.236Z,21.43
2022-09-23T15:03:21.375Z,21.45
2022-09-23T15:06:27.807Z,21.48
2022-09-23T15:09:41.253Z,21.52
2022-09-23T15:12:46.746Z,21.52
2022-09-23T15:15:52.524Z,21.52
2022-09-23T15:18:58.146Z,21.55
2022-09-23T15:22:00.983Z,21.56
2022-09-23T15:25:36.390Z,21.59
2022-09-23T15:28:38.814Z,21.55
2022-09-23T15:31:42.726Z,21.50
2022-09-23T15:34:46.540Z,21.45
2022-09-23T15:37:52.091Z,21.39
2022-09-23T15:40:54.498Z,21.37
2022-09-23T15:43:57.331Z,21.35
2022-09-23T15:47:01.968Z,21.31
2022-09-23T15:50:07.963Z,21.29
2022-09-23T15:53:16.006Z,21.25
2022-09-23T15:56:18.899Z,21.21
2022-09-23T15:59:22.187Z,21.22
2022-09-23T16:02:25.775Z,21.19
2022-09-23T16:05:35.076Z,21.15
2022-09-23T16:08:37.823Z,21.14
2022-09-23T16:11:45.603Z,21.14
2022-09-23T16:14:48.602Z,21.11
2022-09-23T16:17:51.286Z,21.09
2022-09-23T16:20:55.336Z,21.09
2022-09-23T16:23:59.966Z,21.08
2022-09-23T16:27:08.075Z,21.05
2022-09-23T16:30:11.185Z,21.04
2022-09-23T16:33:14.080Z,21.01
2022-09-23T16:36:29.404Z,21.02
2022-09-23T16:39:33.822Z,21.01
2022-09-23T16:42:38.727Z,20.99
2022-09-23T16:45:44.984Z,20.95
2022-09-23T16:48:52.916Z,20.92
2022-09-23T16:51:56.865Z,20.92
2022-09-23T16:55:02.366Z,20.88
2022-09-23T16:58:07.060Z,20.90
2022-09-23T17:01:50.468Z,20.87
2022-09-23T17:04:58.141Z,20.85
2022-09-23T17:08:01.251Z,20.85
2022-09-23T17:11:04.950Z,20.81
2022-09-23T17:14:08.452Z,20.80
2022-09-23T17:17:11.595Z,20.80
2022-09-23T17:20:14.867Z,20.78
2022-09-23T17:23:18.765Z,20.74
2022-09-23T17:26:23.562Z,20.73
2022-09-23T17:29:27.209Z,20.71
2022-09-23T17:32:29.637Z,20.73
2022-09-23T17:35:33.987Z,20.70
2022-09-23T17:38:39.501Z,20.68
2022-09-23T17:41:42.518Z,20.66
2022-09-23T17:44:45.389Z,20.68
2022-09-23T17:47:52.703Z,20.67
2022-09-23T17:51:02.559Z,20.64
2022-09-23T17:54:05.179Z,20.61
2022-09-23T17:57:07.529Z,20.61
2022-09-23T18:00:11.831Z,20.58
2022-09-23T18:03:15.587Z,20.60
2022-09-23T18:06:19.898Z,20.57
2022-09-23T18:09:22.089Z,20.60
2022-09-23T18:12:25.262Z,20.54
2022-09-23T18:15:27.677Z,20.54
2022-09-23T18:18:30.475Z,20.53
2022-09-23T18:21:39.228Z,20.50
2022-09-23T18:24:43.077Z,20.53
2022-09-23T18:27:45.833Z,20.47
2022-09-23T18:30:56.901Z,20.47
2022-09-23T18:34:00.483Z,20.46
2022-09-23T18:37:11.511Z,20.43
2022-09-23T18:40:19.476Z,20.44
2022-09-23T18:43:28.401Z,20.41
2022-09-23T18:46:37.541Z,20.43
2022-09-23T18:50:00.679Z,20.41
2022-09-23T18:53:03.540Z,20.43
2022-09-23T18:56:07.883Z,20.41
2022-09-23T18:59:14.931Z,20.39
2022-09-23T19:02:18.252Z,20.40
2022-09-23T19:05:20.543Z,20.39
2022-09-23T19:08:23.091Z,20.43
2022-09-23T19:11:25.663Z,20.47
2022-09-23T19:14:28.433Z,20.54
2022-09-23T19:17:31.021Z,20.57
2022-09-23T19:20:34.013Z,20.58
2022-09-23T19:23:36.672Z,20.63
2022-09-23T19:26:41.010Z,20.64
2022-09-23T19:29:43.510Z,20.78
2022-09-23T19:32:46.166Z,20.87
2022-09-23T19:35:52.573Z,20.91
2022-09-23T19:39:00.149Z,20.95
2022-09-23T19:42:02.674Z,21.01
2022-09-23T19:45:05.608Z,21.07
2022-09-23T19:48:10.276Z,21.08
2022-09-23T19:51:12.620Z,21.08
2022-09-23T19:54:21.851Z,21.14
2022-09-23T19:57:24.351Z,21.19
2022-09-23T20:00:28.149Z,21.21
2022-09-23T20:03:31.907Z,21.21
2022-09-23T20:06:36.235Z,21.18
2022-09-23T20:09:39.072Z,21.12
2022-09-23T20:12:42.441Z,21.07
2022-09-23T20:15:46.854Z,21.04
2022-09-23T20:18:52.832Z,20.99
2022-09-23T20:22:15.901Z,20.95
2022-09-23T20:25:18.972Z,20.90
2022-09-23T20:28:22.602Z,20.84
2022-09-23T20:31:25.367Z,20.87
2022-09-23T20:34:30.180Z,20.83
2022-09-23T20:37:35.001Z,20.80
2022-09-23T20:40:39.513Z,20.78
2022-09-23T20:43:42.381Z,20.77
2022-09-23T20:46:48.929Z,20.78
2022-09-23T20:49:54.826Z,20.76
2022-09-23T20:52:58.565Z,20.73
2022-09-23T20:56:01.490Z,20.77
2022-09-23T20:59:04.919Z,20.81
2022-09-23T21:02:08.530Z,20.85
2022-09-23T21:05:11.802Z,20.87
2022-09-23T21:08:16.277Z,20.90
2022-09-23T21:11:20.722Z,20.94
2022-09-23T21:14:24.491Z,20.99
2022-09-23T21:17:27.832Z,20.99
2022-09-23T21:20:30.097Z,21.07
2022-09-23T21:23:38.370Z,21.11
2022-09-23T21:26:40.788Z,21.11
2022-09-23T21:29:43.816Z,21.15
2022-09-23T21:32:46.101Z,21.14
2022-09-23T21:35:52.803Z,21.19
2022-09-23T21:38:56.289Z,21.19
2022-09-23T21:42:00.525Z,21.22
2022-09-23T21:45:04.521Z,21.27
2022-09-23T21:48:07.570Z,21.29
2022-09-23T21:51:26.087Z,21.31
2022-09-23T21:54:30.031Z,21.34
2022-09-23T21:57:32.270Z,21.39
2022-09-23T22:00:35.844Z,21.42
2022-09-23T22:03:39.130Z,21.39
2022-09-23T22:06:42.630Z,21.38
2022-09-23T22:09:47.557Z,21.39
2022-09-23T22:12:51.293Z,21.38
2022-09-23T22:15:54.077Z,21.32
2022-09-23T22:19:01.961Z,21.32
2022-09-23T22:22:13.941Z,21.41
2022-09-23T22:25:16.991Z,21.45
2022-09-23T22:28:37.698Z,21.45
2022-09-23T22:31:58.489Z,21.46
2022-09-23T22:35:00.525Z,21.53
2022-09-23T22:38:02.870Z,21.60
2022-09-23T22:41:04.929Z,21.63
2022-09-23T22:44:07.349Z,21.60
2022-09-23T22:47:10.969Z,21.60
2022-09-23T22:50:14.863Z,21.60
2022-09-23T22:53:17.435Z,21.62
2022-09-23T22:56:20.697Z,21.63
2022-09-23T22:59:23.995Z,21.55
2022-09-23T23:02:26.953Z,21.49
2022-09-23T23:05:29.096Z,21.41
2022-09-23T23:08:32.220Z,21.38
2022-09-23T23:11:35.143Z,21.35
2022-09-23T23:14:38.322Z,21.31
2022-09-23T23:17:41.926Z,21.29
2022-09-23T23:20:44.877Z,21.24
2022-09-23T23:23:50.668Z,21.18
2022-09-23T23:26:53.533Z,21.21
2022-09-23T23:29:55.521Z,21.14
2022-09-23T23:32:58.042Z,21.15
2022-09-23T23:36:00.854Z,21.09
2022-09-23T23:39:03.728Z,21.08
2022-09-23T23:42:06.030Z,21.05
2022-09-23T23:45:08.808Z,21.01
2022-09-23T23:48:11.099Z,20.99
2022-09-23T23:51:13.354Z,21.01
2022-09-23T23:54:16.060Z,21.01
2022-09-23T23:57:18.352Z,20.95
